Ely, NV (89301)

6:59 PM PST on February 21, 2017 (GMT -0800)
South Murry St | | Change Station
Active Advisory: Wind Advisory

Elev 6542 ft 39.23 °N, 114.90 °W | Updated 26 seconds ago

Overcast
Overcast
44.0 °F
Feels Like 41 °F
N
6.0
Wind Variable Wind from NE

Today
High -- | Low -- °F
--% Chance of Precip.
Yesterday
High -- | Low -- °F
Precip. -- in
Pressure 29.95 in
Visibility 10.0 miles
Clouds Mostly Cloudy 5000 ft
Overcast 5500 ft
Windchill 41 °F
Dew Point 31 °F
Humidity 61%
Rainfall 0.02 in
Snow Depth Not available.
6:22 AM 5:23 PM
Waning Crescent, 20% visible
METAR KELY 220253Z AUTO 31011KT 10SM -RA BKN050 OVC055 04/01 A3002 RMK AO2 RAB52 SLP142 P0000 60000 T00390006 53011
Pressure 29.95 in
Visibility 10.0 miles
Clouds Mostly Cloudy 5000 ft
Overcast 5500 ft
Windchill 41 °F
Dew Point 31 °F
Humidity 61%
Rainfall 0.02 in
Snow Depth Not available.
6:22 AM 5:23 PM
Waning Crescent, 20% visible
METAR KELY 220253Z AUTO 31011KT 10SM -RA BKN050 OVC055 04/01 A3002 RMK AO2 RAB52 SLP142 P0000 60000 T00390006 53011

Get Your Daily Forecast Email!

Thanks for signing up!

Be on the lookout for a verification email in your inbox.

You'll start receiving the daily forecast at 8 AM.

×

10-Day Weather Forecast

Almanac

Astronomy

Feb. 21, 2017 Rise Set
Actual Time
Civil Twilight
Nautical Twilight
Astronomical Twilight
Moon
Length of Visible Light
Length of Day
Tomorrow will be .
, % of the Moon is Illuminated

Today's Extremes

State Highs State Lows

Community

WunderPhotos

Upload Photos

1,962,540 photos uploaded!

WunderBlog® & News

Nearby

Air Quality

  Air Quality AQ Index Pollutant
Not available.

Snow Depth

Station Depth Elevation

Earthquake Activity

City Distance Mag. Time & Date
Minimum magnitude displayed is 2.5.

Coastal Water Temperatures

Place Temperature

Stations

Nearby Weather Stations

Station Location Temp. Windchill Dew Point Humidity Wind Precip. Elev Updated Type
                   

Watches & Warnings

Wind Advisory
Issued: 6:45 PM PST Feb. 21, 2017 – National Weather Service

... Wind Advisory will expire at 7 PM PST this evening...

Winds have dropped below advisory criteria. There still could be
some gusty winds south of Highway 50, but no impacts are expected.